sensor_id;sensor_type;location;lat;lon;timestamp;temperature;humidity
16976;DHT22;8604;48.148;-1.786;2023-05-02T00:02:09;10.20;99.90
16976;DHT22;8604;48.148;-1.786;2023-05-02T00:04:38;10.20;99.90
16976;DHT22;8604;48.148;-1.786;2023-05-02T00:07:06;10.10;99.90
16976;DHT22;8604;48.148;-1.786;2023-05-02T00:09:35;10.10;99.90
16976;DHT22;8604;48.148;-1.786;2023-05-02T00:12:04;10.10;99.90
16976;DHT22;8604;48.148;-1.786;2023-05-02T00:14:33;10.10;99.90
16976;DHT22;8604;48.148;-1.786;2023-05-02T00:17:01;10.10;99.90
16976;DHT22;8604;48.148;-1.786;2023-05-02T00:19:29;10.00;99.90
16976;DHT22;8604;48.148;-1.786;2023-05-02T00:21:58;9.90;99.90
16976;DHT22;8604;48.148;-1.786;2023-05-02T00:24:26;9.90;99.90
16976;DHT22;8604;48.148;-1.786;2023-05-02T00:26:54;9.90;99.90
16976;DHT22;8604;48.148;-1.786;2023-05-02T00:29:24;9.90;99.90
16976;DHT22;8604;48.148;-1.786;2023-05-02T00:31:52;9.80;99.90
16976;DHT22;8604;48.148;-1.786;2023-05-02T00:34:28;9.80;99.90
16976;DHT22;8604;48.148;-1.786;2023-05-02T00:36:57;9.80;99.90
16976;DHT22;8604;48.148;-1.786;2023-05-02T00:39:25;9.80;99.90
16976;DHT22;8604;48.148;-1.786;2023-05-02T00:41:57;9.70;99.90
16976;DHT22;8604;48.148;-1.786;2023-05-02T00:44:27;9.70;99.90
16976;DHT22;8604;48.148;-1.786;2023-05-02T00:46:56;9.70;99.90
16976;DHT22;8604;48.148;-1.786;2023-05-02T00:49:28;9.70;99.90
16976;DHT22;8604;48.148;-1.786;2023-05-02T00:51:57;9.70;99.90
16976;DHT22;8604;48.148;-1.786;2023-05-02T00:54:26;9.70;99.90
16976;DHT22;8604;48.148;-1.786;2023-05-02T00:56:54;9.70;99.90
16976;DHT22;8604;48.148;-1.786;2023-05-02T00:59:24;9.60;99.90
16976;DHT22;8604;48.148;-1.786;2023-05-02T01:02:02;9.60;99.90
16976;DHT22;8604;48.148;-1.786;2023-05-02T01:04:46;9.60;99.90
16976;DHT22;8604;48.148;-1.786;2023-05-02T01:07:26;9.50;99.90
16976;DHT22;8604;48.148;-1.786;2023-05-02T01:10:08;9.50;99.90
16976;DHT22;8604;48.148;-1.786;2023-05-02T01:12:42;9.50;99.90
16976;DHT22;8604;48.148;-1.786;2023-05-02T01:15:16;9.40;99.90
16976;DHT22;8604;48.148;-1.786;2023-05-02T01:17:47;9.40;99.90
16976;DHT22;8604;48.148;-1.786;2023-05-02T01:20:19;9.40;99.90
16976;DHT22;8604;48.148;-1.786;2023-05-02T01:22:48;9.30;99.90
16976;DHT22;8604;48.148;-1.786;2023-05-02T01:25:28;9.30;99.90
16976;DHT22;8604;48.148;-1.786;2023-05-02T01:28:08;9.30;99.90
16976;DHT22;8604;48.148;-1.786;2023-05-02T01:30:41;9.30;99.90
16976;DHT22;8604;48.148;-1.786;2023-05-02T01:33:13;9.30;99.90
16976;DHT22;8604;48.148;-1.786;2023-05-02T01:35:43;9.30;99.90
16976;DHT22;8604;48.148;-1.786;2023-05-02T01:38:14;9.30;99.90
16976;DHT22;8604;48.148;-1.786;2023-05-02T01:40:44;9.30;99.90
16976;DHT22;8604;48.148;-1.786;2023-05-02T01:43:13;9.20;99.90
16976;DHT22;8604;48.148;-1.786;2023-05-02T01:45:46;9.20;99.90
16976;DHT22;8604;48.148;-1.786;2023-05-02T01:48:17;9.20;99.90
16976;DHT22;8604;48.148;-1.786;2023-05-02T01:50:49;9.20;99.90
16976;DHT22;8604;48.148;-1.786;2023-05-02T01:53:18;9.20;99.90
16976;DHT22;8604;48.148;-1.786;2023-05-02T01:55:49;9.30;99.90
16976;DHT22;8604;48.148;-1.786;2023-05-02T01:58:20;9.30;99.90
16976;DHT22;8604;48.148;-1.786;2023-05-02T02:00:50;9.30;99.90
16976;DHT22;8604;48.148;-1.786;2023-05-02T02:03:20;9.30;99.90
16976;DHT22;8604;48.148;-1.786;2023-05-02T02:05:57;9.40;99.90
16976;DHT22;8604;48.148;-1.786;2023-05-02T02:08:26;9.40;99.90
16976;DHT22;8604;48.148;-1.786;2023-05-02T02:10:58;9.40;99.90
16976;DHT22;8604;48.148;-1.786;2023-05-02T02:13:33;9.50;99.90
16976;DHT22;8604;48.148;-1.786;2023-05-02T02:16:05;9.50;99.90
16976;DHT22;8604;48.148;-1.786;2023-05-02T02:18:38;9.50;99.90
16976;DHT22;8604;48.148;-1.786;2023-05-02T02:21:08;9.50;99.90
16976;DHT22;8604;48.148;-1.786;2023-05-02T02:23:37;9.60;99.90
16976;DHT22;8604;48.148;-1.786;2023-05-02T02:26:11;9.60;99.90
16976;DHT22;8604;48.148;-1.786;2023-05-02T02:28:41;9.60;99.90
16976;DHT22;8604;48.148;-1.786;2023-05-02T02:31:11;9.70;99.90
16976;DHT22;8604;48.148;-1.786;2023-05-02T02:33:39;9.70;99.90
16976;DHT22;8604;48.148;-1.786;2023-05-02T02:36:11;9.70;99.90
16976;DHT22;8604;48.148;-1.786;2023-05-02T02:38:46;9.80;99.90
16976;DHT22;8604;48.148;-1.786;2023-05-02T02:41:19;9.80;99.90
16976;DHT22;8604;48.148;-1.786;2023-05-02T02:44:04;9.80;99.90
16976;DHT22;8604;48.148;-1.786;2023-05-02T02:46:47;9.90;99.90
16976;DHT22;8604;48.148;-1.786;2023-05-02T02:49:25;9.90;99.90
16976;DHT22;8604;48.148;-1.786;2023-05-02T02:52:04;9.90;99.90
16976;DHT22;8604;48.148;-1.786;2023-05-02T02:54:36;10.00;99.90
16976;DHT22;8604;48.148;-1.786;2023-05-02T02:57:12;10.00;99.90
16976;DHT22;8604;48.148;-1.786;2023-05-02T02:59:48;10.10;99.90
16976;DHT22;8604;48.148;-1.786;2023-05-02T03:02:21;10.10;99.90
16976;DHT22;8604;48.148;-1.786;2023-05-02T03:04:54;10.10;99.90
16976;DHT22;8604;48.148;-1.786;2023-05-02T03:07:23;10.20;99.90
16976;DHT22;8604;48.148;-1.786;2023-05-02T03:09:55;10.20;99.90
16976;DHT22;8604;48.148;-1.786;2023-05-02T03:12:24;10.30;99.90
16976;DHT22;8604;48.148;-1.786;2023-05-02T03:14:55;10.30;99.90
16976;DHT22;8604;48.148;-1.786;2023-05-02T03:17:29;10.30;99.90
16976;DHT22;8604;48.148;-1.786;2023-05-02T03:19:58;10.30;99.90
16976;DHT22;8604;48.148;-1.786;2023-05-02T03:22:28;10.30;99.90
16976;DHT22;8604;48.148;-1.786;2023-05-02T03:24:56;10.30;99.90
16976;DHT22;8604;48.148;-1.786;2023-05-02T03:27:25;10.30;99.90
16976;DHT22;8604;48.148;-1.786;2023-05-02T03:29:54;10.40;99.90
16976;DHT22;8604;48.148;-1.786;2023-05-02T03:32:23;10.40;99.90
16976;DHT22;8604;48.148;-1.786;2023-05-02T03:34:54;10.40;99.90
16976;DHT22;8604;48.148;-1.786;2023-05-02T03:37:29;10.50;99.90
16976;DHT22;8604;48.148;-1.786;2023-05-02T03:39:59;10.50;99.90
16976;DHT22;8604;48.148;-1.786;2023-05-02T03:42:29;10.50;99.90
16976;DHT22;8604;48.148;-1.786;2023-05-02T03:44:58;10.50;99.90
16976;DHT22;8604;48.148;-1.786;2023-05-02T03:47:27;10.50;99.90
16976;DHT22;8604;48.148;-1.786;2023-05-02T03:49:57;10.50;99.90
16976;DHT22;8604;48.148;-1.786;2023-05-02T03:52:27;10.60;99.90
16976;DHT22;8604;48.148;-1.786;2023-05-02T03:54:56;10.60;99.90
16976;DHT22;8604;48.148;-1.786;2023-05-02T03:57:25;10.60;99.90
16976;DHT22;8604;48.148;-1.786;2023-05-02T03:59:53;10.60;99.90
16976;DHT22;8604;48.148;-1.786;2023-05-02T04:02:26;10.60;99.90
16976;DHT22;8604;48.148;-1.786;2023-05-02T04:04:57;10.50;99.90
16976;DHT22;8604;48.148;-1.786;2023-05-02T04:07:25;10.60;99.90
16976;DHT22;8604;48.148;-1.786;2023-05-02T04:09:58;10.60;99.90
16976;DHT22;8604;48.148;-1.786;2023-05-02T04:12:29;10.60;99.90
16976;DHT22;8604;48.148;-1.786;2023-05-02T04:14:58;10.60;99.90
16976;DHT22;8604;48.148;-1.786;2023-05-02T04:17:28;10.60;99.90
16976;DHT22;8604;48.148;-1.786;2023-05-02T04:19:58;10.60;99.90
16976;DHT22;8604;48.148;-1.786;2023-05-02T04:22:33;10.60;99.90
16976;DHT22;8604;48.148;-1.786;2023-05-02T04:25:05;10.70;99.90
16976;DHT22;8604;48.148;-1.786;2023-05-02T04:27:35;10.70;99.90
16976;DHT22;8604;48.148;-1.786;2023-05-02T04:30:07;10.70;99.90
16976;DHT22;8604;48.148;-1.786;2023-05-02T04:32:37;10.70;99.90
16976;DHT22;8604;48.148;-1.786;2023-05-02T04:35:07;10.70;99.90
16976;DHT22;8604;48.148;-1.786;2023-05-02T04:37:37;10.70;99.90
16976;DHT22;8604;48.148;-1.786;2023-05-02T04:40:06;10.70;99.90
16976;DHT22;8604;48.148;-1.786;2023-05-02T04:42:35;10.70;99.90
16976;DHT22;8604;48.148;-1.786;2023-05-02T04:45:12;10.70;99.90
16976;DHT22;8604;48.148;-1.786;2023-05-02T04:47:42;10.70;99.90
16976;DHT22;8604;48.148;-1.786;2023-05-02T04:50:12;10.70;99.90
16976;DHT22;8604;48.148;-1.786;2023-05-02T04:52:40;10.70;99.90
16976;DHT22;8604;48.148;-1.786;2023-05-02T04:55:09;10.70;99.90
16976;DHT22;8604;48.148;-1.786;2023-05-02T04:57:37;10.70;99.90
16976;DHT22;8604;48.148;-1.786;2023-05-02T05:00:10;10.70;99.90
16976;DHT22;8604;48.148;-1.786;2023-05-02T05:02:39;10.70;99.90
16976;DHT22;8604;48.148;-1.786;2023-05-02T05:05:10;10.70;99.90
16976;DHT22;8604;48.148;-1.786;2023-05-02T05:07:39;10.70;99.90
16976;DHT22;8604;48.148;-1.786;2023-05-02T05:10:10;10.70;99.90
16976;DHT22;8604;48.148;-1.786;2023-05-02T05:12:46;10.80;99.90
16976;DHT22;8604;48.148;-1.786;2023-05-02T05:15:15;10.80;99.90
16976;DHT22;8604;48.148;-1.786;2023-05-02T05:17:49;10.80;99.90
16976;DHT22;8604;48.148;-1.786;2023-05-02T05:20:18;10.80;99.90
16976;DHT22;8604;48.148;-1.786;2023-05-02T05:22:50;10.90;99.90
16976;DHT22;8604;48.148;-1.786;2023-05-02T05:25:20;10.90;99.90
16976;DHT22;8604;48.148;-1.786;2023-05-02T05:27:50;11.00;99.90
16976;DHT22;8604;48.148;-1.786;2023-05-02T05:30:20;11.00;99.90
16976;DHT22;8604;48.148;-1.786;2023-05-02T05:32:48;11.00;99.90
16976;DHT22;8604;48.148;-1.786;2023-05-02T05:41:38;10.90;99.90
16976;DHT22;8604;48.148;-1.786;2023-05-02T05:44:10;11.00;99.90
16976;DHT22;8604;48.148;-1.786;2023-05-02T08:46:40;25.10;99.90
16976;DHT22;8604;48.148;-1.786;2023-05-02T08:49:10;25.30;99.90
16976;DHT22;8604;48.148;-1.786;2023-05-02T08:51:39;25.60;99.90
16976;DHT22;8604;48.148;-1.786;2023-05-02T08:54:08;26.00;99.90
16976;DHT22;8604;48.148;-1.786;2023-05-02T08:56:37;26.10;99.90
16976;DHT22;8604;48.148;-1.786;2023-05-02T08:59:06;26.30;99.90
16976;DHT22;8604;48.148;-1.786;2023-05-02T09:01:37;26.60;99.90
16976;DHT22;8604;48.148;-1.786;2023-05-02T09:04:08;26.80;99.90
16976;DHT22;8604;48.148;-1.786;2023-05-02T09:06:37;26.90;99.90
16976;DHT22;8604;48.148;-1.786;2023-05-02T09:09:06;27.00;99.90
16976;DHT22;8604;48.148;-1.786;2023-05-02T09:11:37;27.20;99.90
16976;DHT22;8604;48.148;-1.786;2023-05-02T09:14:13;27.10;99.90
16976;DHT22;8604;48.148;-1.786;2023-05-02T09:16:47;27.40;99.90
16976;DHT22;8604;48.148;-1.786;2023-05-02T09:19:25;27.80;99.90
16976;DHT22;8604;48.148;-1.786;2023-05-02T09:21:58;28.20;99.90
16976;DHT22;8604;48.148;-1.786;2023-05-02T09:24:28;28.10;99.90
16976;DHT22;8604;48.148;-1.786;2023-05-02T09:26:58;28.40;99.90
16976;DHT22;8604;48.148;-1.786;2023-05-02T09:29:28;28.20;99.90
16976;DHT22;8604;48.148;-1.786;2023-05-02T09:32:04;28.40;99.90
16976;DHT22;8604;48.148;-1.786;2023-05-02T09:34:33;28.40;99.90
16976;DHT22;8604;48.148;-1.786;2023-05-02T09:37:03;28.50;99.90
16976;DHT22;8604;48.148;-1.786;2023-05-02T09:39:32;29.00;99.90
16976;DHT22;8604;48.148;-1.786;2023-05-02T09:42:01;29.30;99.90
16976;DHT22;8604;48.148;-1.786;2023-05-02T09:44:37;29.30;99.90
16976;DHT22;8604;48.148;-1.786;2023-05-02T09:47:23;29.10;99.90
16976;DHT22;8604;48.148;-1.786;2023-05-02T09:49:53;29.00;99.90
16976;DHT22;8604;48.148;-1.786;2023-05-02T09:52:21;28.90;99.90
16976;DHT22;8604;48.148;-1.786;2023-05-02T09:54:50;29.10;99.90
16976;DHT22;8604;48.148;-1.786;2023-05-02T09:57:19;29.30;99.90
16976;DHT22;8604;48.148;-1.786;2023-05-02T09:59:54;29.60;99.90
16976;DHT22;8604;48.148;-1.786;2023-05-02T10:02:25;29.60;99.90
16976;DHT22;8604;48.148;-1.786;2023-05-02T10:04:56;29.60;99.90
16976;DHT22;8604;48.148;-1.786;2023-05-02T10:07:25;29.50;99.90
16976;DHT22;8604;48.148;-1.786;2023-05-02T10:09:57;29.60;99.90
16976;DHT22;8604;48.148;-1.786;2023-05-02T10:12:29;29.60;99.90
16976;DHT22;8604;48.148;-1.786;2023-05-02T10:15:03;29.70;99.90
16976;DHT22;8604;48.148;-1.786;2023-05-02T10:17:39;29.80;99.90
16976;DHT22;8604;48.148;-1.786;2023-05-02T10:20:10;30.00;99.90
16976;DHT22;8604;48.148;-1.786;2023-05-02T10:22:44;29.80;99.90
16976;DHT22;8604;48.148;-1.786;2023-05-02T10:25:15;29.30;99.90
16976;DHT22;8604;48.148;-1.786;2023-05-02T10:27:44;29.40;99.90
16976;DHT22;8604;48.148;-1.786;2023-05-02T10:30:14;29.50;99.90
16976;DHT22;8604;48.148;-1.786;2023-05-02T10:32:47;29.80;99.90
16976;DHT22;8604;48.148;-1.786;2023-05-02T10:35:20;29.00;99.90
16976;DHT22;8604;48.148;-1.786;2023-05-02T10:37:50;29.40;99.90
16976;DHT22;8604;48.148;-1.786;2023-05-02T10:40:21;29.40;99.90
16976;DHT22;8604;48.148;-1.786;2023-05-02T10:42:50;29.80;99.90
16976;DHT22;8604;48.148;-1.786;2023-05-02T10:45:31;29.20;99.90
16976;DHT22;8604;48.148;-1.786;2023-05-02T10:48:17;29.50;99.90
16976;DHT22;8604;48.148;-1.786;2023-05-02T10:50:49;29.80;99.90
16976;DHT22;8604;48.148;-1.786;2023-05-02T10:53:29;29.60;99.90
16976;DHT22;8604;48.148;-1.786;2023-05-02T10:56:11;29.40;99.90
16976;DHT22;8604;48.148;-1.786;2023-05-02T10:58:40;29.40;99.90
16976;DHT22;8604;48.148;-1.786;2023-05-02T11:01:32;29.50;99.90
16976;DHT22;8604;48.148;-1.786;2023-05-02T11:04:07;29.50;99.90
16976;DHT22;8604;48.148;-1.786;2023-05-02T11:09:33;29.40;99.90
16976;DHT22;8604;48.148;-1.786;2023-05-02T11:12:03;29.20;99.90
16976;DHT22;8604;48.148;-1.786;2023-05-02T11:14:44;29.40;99.90
16976;DHT22;8604;48.148;-1.786;2023-05-02T11:17:17;29.00;99.90
16976;DHT22;8604;48.148;-1.786;2023-05-02T11:23:18;28.90;99.90
16976;DHT22;8604;48.148;-1.786;2023-05-02T11:25:49;29.40;99.90
16976;DHT22;8604;48.148;-1.786;2023-05-02T11:28:41;29.70;99.90
16976;DHT22;8604;48.148;-1.786;2023-05-02T11:34:14;29.10;99.90
16976;DHT22;8604;48.148;-1.786;2023-05-02T11:36:43;28.50;99.90
16976;DHT22;8604;48.148;-1.786;2023-05-02T11:39:19;28.20;99.90
16976;DHT22;8604;48.148;-1.786;2023-05-02T11:41:49;27.80;99.90
16976;DHT22;8604;48.148;-1.786;2023-05-02T11:44:19;28.10;99.90
16976;DHT22;8604;48.148;-1.786;2023-05-02T11:46:50;28.40;99.90
16976;DHT22;8604;48.148;-1.786;2023-05-02T11:49:21;28.10;99.90
16976;DHT22;8604;48.148;-1.786;2023-05-02T11:52:03;27.60;99.90
16976;DHT22;8604;48.148;-1.786;2023-05-02T11:54:33;27.70;99.90
16976;DHT22;8604;48.148;-1.786;2023-05-02T11:57:02;27.70;99.90
16976;DHT22;8604;48.148;-1.786;2023-05-02T11:59:48;27.40;99.90
16976;DHT22;8604;48.148;-1.786;2023-05-02T12:02:34;27.70;99.90
16976;DHT22;8604;48.148;-1.786;2023-05-02T12:05:05;28.00;99.90
16976;DHT22;8604;48.148;-1.786;2023-05-02T12:07:35;27.90;99.90
16976;DHT22;8604;48.148;-1.786;2023-05-02T12:10:07;27.90;99.90
16976;DHT22;8604;48.148;-1.786;2023-05-02T12:12:37;27.80;99.90
16976;DHT22;8604;48.148;-1.786;2023-05-02T12:15:08;27.60;99.90
16976;DHT22;8604;48.148;-1.786;2023-05-02T12:17:39;27.40;99.90
16976;DHT22;8604;48.148;-1.786;2023-05-02T12:20:09;27.20;99.90
16976;DHT22;8604;48.148;-1.786;2023-05-02T12:22:39;27.20;99.90
16976;DHT22;8604;48.148;-1.786;2023-05-02T12:25:09;26.60;99.90
16976;DHT22;8604;48.148;-1.786;2023-05-02T12:27:38;26.30;99.90
16976;DHT22;8604;48.148;-1.786;2023-05-02T12:30:08;26.20;99.90
16976;DHT22;8604;48.148;-1.786;2023-05-02T12:32:36;25.90;99.90
16976;DHT22;8604;48.148;-1.786;2023-05-02T12:35:20;25.70;99.90
16976;DHT22;8604;48.148;-1.786;2023-05-02T12:37:51;25.70;99.90
16976;DHT22;8604;48.148;-1.786;2023-05-02T12:40:22;25.80;99.90
16976;DHT22;8604;48.148;-1.786;2023-05-02T12:42:59;25.70;99.90
16976;DHT22;8604;48.148;-1.786;2023-05-02T12:45:30;25.40;99.90
16976;DHT22;8604;48.148;-1.786;2023-05-02T12:48:26;25.10;99.90
16976;DHT22;8604;48.148;-1.786;2023-05-02T12:51:00;25.00;99.90
16976;DHT22;8604;48.148;-1.786;2023-05-02T12:54:20;24.80;99.90
16976;DHT22;8604;48.148;-1.786;2023-05-02T12:57:37;24.70;99.90
16976;DHT22;8604;48.148;-1.786;2023-05-02T13:40:50;23.50;99.90
16976;DHT22;8604;48.148;-1.786;2023-05-02T13:43:30;23.30;99.90
16976;DHT22;8604;48.148;-1.786;2023-05-02T14:05:36;23.10;99.90
16976;DHT22;8604;48.148;-1.786;2023-05-02T14:08:10;23.00;99.90
16976;DHT22;8604;48.148;-1.786;2023-05-02T14:10:50;23.00;99.90
16976;DHT22;8604;48.148;-1.786;2023-05-02T14:13:22;22.90;99.90
16976;DHT22;8604;48.148;-1.786;2023-05-02T14:15:57;22.80;99.90
16976;DHT22;8604;48.148;-1.786;2023-05-02T14:18:26;22.80;99.90
16976;DHT22;8604;48.148;-1.786;2023-05-02T14:27:24;22.60;99.90
16976;DHT22;8604;48.148;-1.786;2023-05-02T14:29:56;22.50;99.90
16976;DHT22;8604;48.148;-1.786;2023-05-02T14:41:55;22.60;99.90
16976;DHT22;8604;48.148;-1.786;2023-05-02T14:44:27;22.60;99.90
16976;DHT22;8604;48.148;-1.786;2023-05-02T14:50:06;22.60;99.90
16976;DHT22;8604;48.148;-1.786;2023-05-02T15:01:59;22.30;99.90
16976;DHT22;8604;48.148;-1.786;2023-05-02T15:04:29;22.20;99.90
16976;DHT22;8604;48.148;-1.786;2023-05-02T15:06:59;22.20;99.90
16976;DHT22;8604;48.148;-1.786;2023-05-02T15:09:34;22.20;99.90
16976;DHT22;8604;48.148;-1.786;2023-05-02T15:12:24;22.20;99.90
16976;DHT22;8604;48.148;-1.786;2023-05-02T15:15:06;22.10;99.90
16976;DHT22;8604;48.148;-1.786;2023-05-02T15:17:46;22.10;99.90
16976;DHT22;8604;48.148;-1.786;2023-05-02T15:20:30;22.20;99.90
16976;DHT22;8604;48.148;-1.786;2023-05-02T15:23:04;22.30;99.90
16976;DHT22;8604;48.148;-1.786;2023-05-02T15:25:33;22.30;99.90
16976;DHT22;8604;48.148;-1.786;2023-05-02T15:28:22;22.30;99.90
16976;DHT22;8604;48.148;-1.786;2023-05-02T15:30:53;22.30;99.90
16976;DHT22;8604;48.148;-1.786;2023-05-02T15:33:36;22.30;99.90
16976;DHT22;8604;48.148;-1.786;2023-05-02T15:36:14;22.30;99.90
16976;DHT22;8604;48.148;-1.786;2023-05-02T15:39:09;22.30;99.90
16976;DHT22;8604;48.148;-1.786;2023-05-02T15:41:40;22.30;99.90
16976;DHT22;8604;48.148;-1.786;2023-05-02T15:44:09;22.30;99.90
16976;DHT22;8604;48.148;-1.786;2023-05-02T15:56:02;22.00;99.90
16976;DHT22;8604;48.148;-1.786;2023-05-02T15:58:30;21.90;99.90
16976;DHT22;8604;48.148;-1.786;2023-05-02T16:00:59;21.90;99.90
16976;DHT22;8604;48.148;-1.786;2023-05-02T16:03:27;21.80;99.90
16976;DHT22;8604;48.148;-1.786;2023-05-02T16:05:57;21.80;99.90
16976;DHT22;8604;48.148;-1.786;2023-05-02T16:08:27;21.80;99.90
16976;DHT22;8604;48.148;-1.786;2023-05-02T16:10:56;21.80;99.90
16976;DHT22;8604;48.148;-1.786;2023-05-02T16:13:29;21.70;99.90
16976;DHT22;8604;48.148;-1.786;2023-05-02T16:16:01;21.70;99.90
16976;DHT22;8604;48.148;-1.786;2023-05-02T16:18:30;21.50;99.90
16976;DHT22;8604;48.148;-1.786;2023-05-02T16:21:00;21.40;99.90
16976;DHT22;8604;48.148;-1.786;2023-05-02T16:23:29;21.30;99.90
16976;DHT22;8604;48.148;-1.786;2023-05-02T16:25:57;21.30;99.90
16976;DHT22;8604;48.148;-1.786;2023-05-02T16:28:27;21.30;99.90
16976;DHT22;8604;48.148;-1.786;2023-05-02T16:30:57;21.30;99.90
16976;DHT22;8604;48.148;-1.786;2023-05-02T16:33:26;21.30;99.90
16976;DHT22;8604;48.148;-1.786;2023-05-02T16:36:01;21.30;99.90
16976;DHT22;8604;48.148;-1.786;2023-05-02T16:38:31;21.30;99.90
16976;DHT22;8604;48.148;-1.786;2023-05-02T16:41:02;21.30;99.90
16976;DHT22;8604;48.148;-1.786;2023-05-02T16:43:33;21.40;99.90
16976;DHT22;8604;48.148;-1.786;2023-05-02T16:46:05;21.40;99.90
16976;DHT22;8604;48.148;-1.786;2023-05-02T16:48:34;21.40;99.90
16976;DHT22;8604;48.148;-1.786;2023-05-02T16:51:05;21.40;99.90
16976;DHT22;8604;48.148;-1.786;2023-05-02T16:53:33;21.40;99.90
16976;DHT22;8604;48.148;-1.786;2023-05-02T16:56:02;21.40;99.90
16976;DHT22;8604;48.148;-1.786;2023-05-02T16:58:32;21.30;99.90
16976;DHT22;8604;48.148;-1.786;2023-05-02T17:01:00;21.30;99.90
16976;DHT22;8604;48.148;-1.786;2023-05-02T17:03:31;21.20;99.90
16976;DHT22;8604;48.148;-1.786;2023-05-02T17:06:00;21.20;99.90
16976;DHT22;8604;48.148;-1.786;2023-05-02T17:08:29;21.20;99.90
16976;DHT22;8604;48.148;-1.786;2023-05-02T17:10:58;21.20;99.90
16976;DHT22;8604;48.148;-1.786;2023-05-02T17:13:27;21.10;99.90
16976;DHT22;8604;48.148;-1.786;2023-05-02T17:15:56;21.10;99.90
16976;DHT22;8604;48.148;-1.786;2023-05-02T17:18:25;21.10;99.90
16976;DHT22;8604;48.148;-1.786;2023-05-02T17:20:55;21.10;99.90
16976;DHT22;8604;48.148;-1.786;2023-05-02T17:23:26;20.90;99.90
16976;DHT22;8604;48.148;-1.786;2023-05-02T17:26:00;20.90;99.90
16976;DHT22;8604;48.148;-1.786;2023-05-02T17:28:29;20.80;99.90
16976;DHT22;8604;48.148;-1.786;2023-05-02T17:30:57;20.70;99.90
16976;DHT22;8604;48.148;-1.786;2023-05-02T17:33:26;20.70;99.90
16976;DHT22;8604;48.148;-1.786;2023-05-02T17:35:56;20.70;99.90
16976;DHT22;8604;48.148;-1.786;2023-05-02T17:38:25;20.60;99.90
16976;DHT22;8604;48.148;-1.786;2023-05-02T17:40:54;20.60;99.90
16976;DHT22;8604;48.148;-1.786;2023-05-02T17:43:23;20.50;99.90
16976;DHT22;8604;48.148;-1.786;2023-05-02T17:45:52;20.50;99.90
16976;DHT22;8604;48.148;-1.786;2023-05-02T17:48:21;20.50;99.90
16976;DHT22;8604;48.148;-1.786;2023-05-02T17:50:50;20.50;99.90
16976;DHT22;8604;48.148;-1.786;2023-05-02T17:53:21;20.50;99.90
16976;DHT22;8604;48.148;-1.786;2023-05-02T17:55:50;20.50;99.90
16976;DHT22;8604;48.148;-1.786;2023-05-02T17:58:19;20.50;99.90
16976;DHT22;8604;48.148;-1.786;2023-05-02T18:00:47;20.40;99.90
16976;DHT22;8604;48.148;-1.786;2023-05-02T18:03:17;20.40;99.90
16976;DHT22;8604;48.148;-1.786;2023-05-02T18:05:46;20.30;99.90
16976;DHT22;8604;48.148;-1.786;2023-05-02T18:08:15;20.30;99.90
16976;DHT22;8604;48.148;-1.786;2023-05-02T18:10:45;20.30;99.90
16976;DHT22;8604;48.148;-1.786;2023-05-02T18:13:13;20.20;99.90
16976;DHT22;8604;48.148;-1.786;2023-05-02T18:15:43;20.20;99.90
16976;DHT22;8604;48.148;-1.786;2023-05-02T18:18:12;20.10;99.90
16976;DHT22;8604;48.148;-1.786;2023-05-02T18:20:46;20.10;99.90
16976;DHT22;8604;48.148;-1.786;2023-05-02T18:23:19;20.10;99.90
16976;DHT22;8604;48.148;-1.786;2023-05-02T18:26:18;20.00;99.90
16976;DHT22;8604;48.148;-1.786;2023-05-02T18:28:47;20.00;99.90
16976;DHT22;8604;48.148;-1.786;2023-05-02T18:31:36;19.90;99.90
16976;DHT22;8604;48.148;-1.786;2023-05-02T18:34:22;19.90;99.90
16976;DHT22;8604;48.148;-1.786;2023-05-02T18:36:51;19.80;99.90
16976;DHT22;8604;48.148;-1.786;2023-05-02T18:39:20;19.80;99.90
16976;DHT22;8604;48.148;-1.786;2023-05-02T18:41:50;19.70;99.90
16976;DHT22;8604;48.148;-1.786;2023-05-02T18:44:19;19.70;99.90
16976;DHT22;8604;48.148;-1.786;2023-05-02T18:46:48;19.60;99.90
16976;DHT22;8604;48.148;-1.786;2023-05-02T18:49:17;19.60;99.90
16976;DHT22;8604;48.148;-1.786;2023-05-02T18:51:47;19.50;99.90
16976;DHT22;8604;48.148;-1.786;2023-05-02T18:54:15;19.40;99.90
16976;DHT22;8604;48.148;-1.786;2023-05-02T18:56:45;19.40;99.90
16976;DHT22;8604;48.148;-1.786;2023-05-02T18:59:16;19.30;99.90
16976;DHT22;8604;48.148;-1.786;2023-05-02T19:01:45;19.20;99.90
16976;DHT22;8604;48.148;-1.786;2023-05-02T19:04:29;19.10;99.90
16976;DHT22;8604;48.148;-1.786;2023-05-02T19:06:58;19.00;99.90
16976;DHT22;8604;48.148;-1.786;2023-05-02T19:09:27;18.90;99.90
16976;DHT22;8604;48.148;-1.786;2023-05-02T19:11:56;18.80;99.90
16976;DHT22;8604;48.148;-1.786;2023-05-02T19:14:26;18.70;99.90
16976;DHT22;8604;48.148;-1.786;2023-05-02T19:16:55;18.70;99.90
16976;DHT22;8604;48.148;-1.786;2023-05-02T19:19:24;18.50;99.90
16976;DHT22;8604;48.148;-1.786;2023-05-02T19:21:52;18.50;99.90
16976;DHT22;8604;48.148;-1.786;2023-05-02T19:24:21;18.40;99.90
16976;DHT22;8604;48.148;-1.786;2023-05-02T19:26:50;18.30;99.90
16976;DHT22;8604;48.148;-1.786;2023-05-02T19:29:19;18.10;99.90
16976;DHT22;8604;48.148;-1.786;2023-05-02T19:31:49;18.00;99.90
16976;DHT22;8604;48.148;-1.786;2023-05-02T19:34:18;18.00;99.90
16976;DHT22;8604;48.148;-1.786;2023-05-02T19:36:46;17.80;99.90
16976;DHT22;8604;48.148;-1.786;2023-05-02T19:39:15;17.70;99.90
16976;DHT22;8604;48.148;-1.786;2023-05-02T19:41:44;17.50;99.90
16976;DHT22;8604;48.148;-1.786;2023-05-02T19:44:14;17.40;99.90
16976;DHT22;8604;48.148;-1.786;2023-05-02T19:46:44;17.30;99.90
16976;DHT22;8604;48.148;-1.786;2023-05-02T19:49:14;17.30;99.90
16976;DHT22;8604;48.148;-1.786;2023-05-02T19:51:42;17.20;99.90
16976;DHT22;8604;48.148;-1.786;2023-05-02T19:54:11;17.10;99.90
16976;DHT22;8604;48.148;-1.786;2023-05-02T19:56:39;17.10;99.90
16976;DHT22;8604;48.148;-1.786;2023-05-02T19:59:09;17.00;99.90
16976;DHT22;8604;48.148;-1.786;2023-05-02T20:01:37;17.00;99.90
16976;DHT22;8604;48.148;-1.786;2023-05-02T20:04:06;16.90;99.90
16976;DHT22;8604;48.148;-1.786;2023-05-02T20:06:36;16.80;99.90
16976;DHT22;8604;48.148;-1.786;2023-05-02T20:09:04;16.80;99.90
16976;DHT22;8604;48.148;-1.786;2023-05-02T20:11:33;16.70;99.90
16976;DHT22;8604;48.148;-1.786;2023-05-02T20:14:01;16.70;99.90
16976;DHT22;8604;48.148;-1.786;2023-05-02T20:16:31;16.60;99.90
16976;DHT22;8604;48.148;-1.786;2023-05-02T20:18:59;16.60;99.90
16976;DHT22;8604;48.148;-1.786;2023-05-02T20:21:28;16.60;99.90
16976;DHT22;8604;48.148;-1.786;2023-05-02T20:23:58;16.50;99.90
16976;DHT22;8604;48.148;-1.786;2023-05-02T20:26:27;16.50;99.90
16976;DHT22;8604;48.148;-1.786;2023-05-02T20:28:57;16.40;99.90
16976;DHT22;8604;48.148;-1.786;2023-05-02T21:32:05;15.00;99.90
16976;DHT22;8604;48.148;-1.786;2023-05-02T21:34:34;15.00;99.90
16976;DHT22;8604;48.148;-1.786;2023-05-02T21:37:05;14.90;99.90
16976;DHT22;8604;48.148;-1.786;2023-05-02T21:39:34;15.00;99.90
16976;DHT22;8604;48.148;-1.786;2023-05-02T21:42:02;14.90;99.90
16976;DHT22;8604;48.148;-1.786;2023-05-02T21:44:31;14.80;99.90
16976;DHT22;8604;48.148;-1.786;2023-05-02T21:46:59;14.80;99.90
16976;DHT22;8604;48.148;-1.786;2023-05-02T21:49:58;14.70;99.90
16976;DHT22;8604;48.148;-1.786;2023-05-02T21:53:05;14.70;99.90
16976;DHT22;8604;48.148;-1.786;2023-05-02T21:55:34;14.60;99.90
16976;DHT22;8604;48.148;-1.786;2023-05-02T21:58:03;14.60;99.90